Terminal Aerodrome Forecast
Issued by NWS

Home | Current Version | Previous Version | Text Only | Print | Product List | Glossary On
Versions: 1 2 3 4 5 6 7 8 9 10 11 12 13 14 15 16 17 18 19 20 21 22 23 24 25 26 27 28 29 30 31 32 33 34 35 36 37 38 39
000
FTUS45 KBOU 220433 AAB
TAFAPA
TAF AMD
KAPA 220433Z 2205/2224 30008KT P6SM -SHRA SCT020 BKN030 OVC040
     FM220520 35018G30KT P6SM VCSH SCT008 BKN030 OVC050
      TEMPO 2206/2208 1SM -SN BR OVC008
     FM220900 24007KT P6SM VCSH SCT030 BKN090
     FM221800 33014G22KT P6SM VCSH SCT080 BKN120=

USA.gov is the U.S. government's official web portal to all federal, state and local government web resources and services.